sensor_id;sensor_type;location;lat;lon;timestamp;temperature;humidity
7576;DHT22;3829;50.798;4.358;2023-03-14T00:02:18;11.50;99.90
7576;DHT22;3829;50.798;4.358;2023-03-14T00:04:44;11.60;99.90
7576;DHT22;3829;50.798;4.358;2023-03-14T00:07:11;11.40;99.90
7576;DHT22;3829;50.798;4.358;2023-03-14T00:09:37;11.30;99.90
7576;DHT22;3829;50.798;4.358;2023-03-14T00:12:02;11.20;99.90
7576;DHT22;3829;50.798;4.358;2023-03-14T00:14:29;11.00;99.90
7576;DHT22;3829;50.798;4.358;2023-03-14T00:16:54;11.00;99.90
7576;DHT22;3829;50.798;4.358;2023-03-14T00:19:20;10.90;99.90
7576;DHT22;3829;50.798;4.358;2023-03-14T00:21:46;10.90;99.90
7576;DHT22;3829;50.798;4.358;2023-03-14T00:24:12;10.80;99.90
7576;DHT22;3829;50.798;4.358;2023-03-14T00:26:38;10.90;99.90
7576;DHT22;3829;50.798;4.358;2023-03-14T00:29:03;10.80;99.90
7576;DHT22;3829;50.798;4.358;2023-03-14T00:31:29;10.90;99.90
7576;DHT22;3829;50.798;4.358;2023-03-14T00:33:55;10.90;99.90
7576;DHT22;3829;50.798;4.358;2023-03-14T00:36:21;11.00;99.90
7576;DHT22;3829;50.798;4.358;2023-03-14T00:38:49;11.00;99.90
7576;DHT22;3829;50.798;4.358;2023-03-14T00:41:18;11.00;99.90
7576;DHT22;3829;50.798;4.358;2023-03-14T00:43:44;11.20;99.90
7576;DHT22;3829;50.798;4.358;2023-03-14T00:46:11;11.20;99.90
7576;DHT22;3829;50.798;4.358;2023-03-14T00:48:37;11.10;99.90
7576;DHT22;3829;50.798;4.358;2023-03-14T00:51:04;11.20;99.90
7576;DHT22;3829;50.798;4.358;2023-03-14T00:53:31;11.10;99.90
7576;DHT22;3829;50.798;4.358;2023-03-14T00:56:01;11.00;99.90
7576;DHT22;3829;50.798;4.358;2023-03-14T00:58:27;10.90;99.90
7576;DHT22;3829;50.798;4.358;2023-03-14T01:00:52;10.90;99.90
7576;DHT22;3829;50.798;4.358;2023-03-14T01:03:18;11.00;99.90
7576;DHT22;3829;50.798;4.358;2023-03-14T01:05:44;11.00;99.90
7576;DHT22;3829;50.798;4.358;2023-03-14T01:08:09;11.10;99.90
7576;DHT22;3829;50.798;4.358;2023-03-14T01:10:40;11.10;99.90
7576;DHT22;3829;50.798;4.358;2023-03-14T01:13:06;11.10;99.90
7576;DHT22;3829;50.798;4.358;2023-03-14T01:15:33;11.20;99.90
7576;DHT22;3829;50.798;4.358;2023-03-14T01:17:59;11.10;99.90
7576;DHT22;3829;50.798;4.358;2023-03-14T01:20:24;11.10;99.90
7576;DHT22;3829;50.798;4.358;2023-03-14T01:22:50;11.00;99.90
7576;DHT22;3829;50.798;4.358;2023-03-14T01:25:17;11.00;99.90
7576;DHT22;3829;50.798;4.358;2023-03-14T01:27:43;10.90;99.90
7576;DHT22;3829;50.798;4.358;2023-03-14T01:30:10;10.80;99.90
7576;DHT22;3829;50.798;4.358;2023-03-14T01:32:36;10.70;99.90
7576;DHT22;3829;50.798;4.358;2023-03-14T01:35:02;10.60;99.90
7576;DHT22;3829;50.798;4.358;2023-03-14T01:37:28;10.60;99.90
7576;DHT22;3829;50.798;4.358;2023-03-14T01:39:54;10.50;99.90
7576;DHT22;3829;50.798;4.358;2023-03-14T01:42:19;10.50;99.90
7576;DHT22;3829;50.798;4.358;2023-03-14T01:44:52;10.60;99.90
7576;DHT22;3829;50.798;4.358;2023-03-14T01:47:18;10.50;99.90
7576;DHT22;3829;50.798;4.358;2023-03-14T01:49:50;10.50;99.90
7576;DHT22;3829;50.798;4.358;2023-03-14T01:52:22;10.30;99.90
7576;DHT22;3829;50.798;4.358;2023-03-14T01:54:54;10.10;99.90
7576;DHT22;3829;50.798;4.358;2023-03-14T01:57:27;10.00;99.90
7576;DHT22;3829;50.798;4.358;2023-03-14T02:00:01;9.90;99.90
7576;DHT22;3829;50.798;4.358;2023-03-14T02:02:29;9.90;99.90
7576;DHT22;3829;50.798;4.358;2023-03-14T02:04:55;9.80;99.90
7576;DHT22;3829;50.798;4.358;2023-03-14T02:07:48;9.70;99.90
7576;DHT22;3829;50.798;4.358;2023-03-14T02:10:17;9.70;99.90
7576;DHT22;3829;50.798;4.358;2023-03-14T02:12:45;9.60;99.90
7576;DHT22;3829;50.798;4.358;2023-03-14T02:15:12;9.60;99.90
7576;DHT22;3829;50.798;4.358;2023-03-14T02:17:38;9.70;99.90
7576;DHT22;3829;50.798;4.358;2023-03-14T02:20:28;9.70;99.90
7576;DHT22;3829;50.798;4.358;2023-03-14T02:22:54;9.70;99.90
7576;DHT22;3829;50.798;4.358;2023-03-14T02:28:19;9.60;99.90
7576;DHT22;3829;50.798;4.358;2023-03-14T02:30:45;9.60;99.90
7576;DHT22;3829;50.798;4.358;2023-03-14T02:33:15;9.70;99.90
7576;DHT22;3829;50.798;4.358;2023-03-14T02:35:49;9.70;99.90
7576;DHT22;3829;50.798;4.358;2023-03-14T02:38:24;9.80;99.90
7576;DHT22;3829;50.798;4.358;2023-03-14T02:40:51;9.80;99.90
7576;DHT22;3829;50.798;4.358;2023-03-14T02:43:17;9.80;99.90
7576;DHT22;3829;50.798;4.358;2023-03-14T02:45:45;9.80;99.90
7576;DHT22;3829;50.798;4.358;2023-03-14T02:48:18;9.80;99.90
7576;DHT22;3829;50.798;4.358;2023-03-14T02:50:46;9.80;99.90
7576;DHT22;3829;50.798;4.358;2023-03-14T02:53:16;9.80;99.90
7576;DHT22;3829;50.798;4.358;2023-03-14T02:55:45;9.80;99.90
7576;DHT22;3829;50.798;4.358;2023-03-14T02:58:12;9.70;99.90
7576;DHT22;3829;50.798;4.358;2023-03-14T03:00:37;9.70;99.90
7576;DHT22;3829;50.798;4.358;2023-03-14T03:03:03;9.70;99.90
7576;DHT22;3829;50.798;4.358;2023-03-14T03:05:31;9.70;99.90
7576;DHT22;3829;50.798;4.358;2023-03-14T03:07:57;9.70;99.90
7576;DHT22;3829;50.798;4.358;2023-03-14T03:10:23;9.80;99.90
7576;DHT22;3829;50.798;4.358;2023-03-14T03:12:49;9.80;99.90
7576;DHT22;3829;50.798;4.358;2023-03-14T03:15:14;9.80;99.90
7576;DHT22;3829;50.798;4.358;2023-03-14T03:17:40;9.80;99.90
7576;DHT22;3829;50.798;4.358;2023-03-14T03:20:06;9.90;99.90
7576;DHT22;3829;50.798;4.358;2023-03-14T03:22:35;9.90;99.90
7576;DHT22;3829;50.798;4.358;2023-03-14T03:25:01;9.90;99.90
7576;DHT22;3829;50.798;4.358;2023-03-14T03:27:30;9.90;99.90
7576;DHT22;3829;50.798;4.358;2023-03-14T03:29:56;9.90;99.90
7576;DHT22;3829;50.798;4.358;2023-03-14T03:32:22;10.00;99.90
7576;DHT22;3829;50.798;4.358;2023-03-14T03:34:47;10.00;99.90
7576;DHT22;3829;50.798;4.358;2023-03-14T03:37:13;10.10;99.90
7576;DHT22;3829;50.798;4.358;2023-03-14T03:39:38;10.00;99.90
7576;DHT22;3829;50.798;4.358;2023-03-14T03:42:04;10.00;99.90
7576;DHT22;3829;50.798;4.358;2023-03-14T03:44:29;10.00;99.90
7576;DHT22;3829;50.798;4.358;2023-03-14T03:46:55;10.10;99.90
7576;DHT22;3829;50.798;4.358;2023-03-14T03:49:20;10.00;99.90
7576;DHT22;3829;50.798;4.358;2023-03-14T03:51:46;10.00;99.90
7576;DHT22;3829;50.798;4.358;2023-03-14T03:54:11;10.10;99.90
7576;DHT22;3829;50.798;4.358;2023-03-14T03:56:37;10.10;99.90
7576;DHT22;3829;50.798;4.358;2023-03-14T03:59:03;10.00;99.90
7576;DHT22;3829;50.798;4.358;2023-03-14T04:01:28;10.00;99.90
7576;DHT22;3829;50.798;4.358;2023-03-14T04:03:54;10.10;99.90
7576;DHT22;3829;50.798;4.358;2023-03-14T04:06:19;10.20;99.90
7576;DHT22;3829;50.798;4.358;2023-03-14T04:08:45;10.20;99.90
7576;DHT22;3829;50.798;4.358;2023-03-14T04:11:10;10.20;99.90
7576;DHT22;3829;50.798;4.358;2023-03-14T04:13:36;10.20;99.90
7576;DHT22;3829;50.798;4.358;2023-03-14T04:16:02;10.20;99.90
7576;DHT22;3829;50.798;4.358;2023-03-14T04:18:28;10.20;99.90
7576;DHT22;3829;50.798;4.358;2023-03-14T04:20:57;10.20;99.90
7576;DHT22;3829;50.798;4.358;2023-03-14T04:23:23;10.10;99.90
7576;DHT22;3829;50.798;4.358;2023-03-14T04:25:50;10.20;99.90
7576;DHT22;3829;50.798;4.358;2023-03-14T04:28:16;10.20;99.90
7576;DHT22;3829;50.798;4.358;2023-03-14T04:30:41;10.20;99.90
7576;DHT22;3829;50.798;4.358;2023-03-14T04:33:07;10.20;99.90
7576;DHT22;3829;50.798;4.358;2023-03-14T04:35:34;10.20;99.90
7576;DHT22;3829;50.798;4.358;2023-03-14T04:37:59;10.20;99.90
7576;DHT22;3829;50.798;4.358;2023-03-14T04:40:25;10.20;99.90
7576;DHT22;3829;50.798;4.358;2023-03-14T04:42:51;10.20;99.90
7576;DHT22;3829;50.798;4.358;2023-03-14T04:45:17;10.20;99.90
7576;DHT22;3829;50.798;4.358;2023-03-14T04:47:43;10.20;99.90
7576;DHT22;3829;50.798;4.358;2023-03-14T04:50:09;10.20;99.90
7576;DHT22;3829;50.798;4.358;2023-03-14T04:52:35;10.20;99.90
7576;DHT22;3829;50.798;4.358;2023-03-14T04:55:01;10.20;99.90
7576;DHT22;3829;50.798;4.358;2023-03-14T04:57:27;10.20;99.90
7576;DHT22;3829;50.798;4.358;2023-03-14T04:59:52;10.30;99.90
7576;DHT22;3829;50.798;4.358;2023-03-14T05:02:18;10.40;99.90
7576;DHT22;3829;50.798;4.358;2023-03-14T05:04:43;10.30;99.90
7576;DHT22;3829;50.798;4.358;2023-03-14T05:07:09;10.30;99.90
7576;DHT22;3829;50.798;4.358;2023-03-14T05:09:34;10.30;99.90
7576;DHT22;3829;50.798;4.358;2023-03-14T05:12:00;10.30;99.90
7576;DHT22;3829;50.798;4.358;2023-03-14T05:14:26;10.30;99.90
7576;DHT22;3829;50.798;4.358;2023-03-14T05:16:51;10.30;99.90
7576;DHT22;3829;50.798;4.358;2023-03-14T05:19:17;10.40;99.90
7576;DHT22;3829;50.798;4.358;2023-03-14T05:21:42;10.40;99.90
7576;DHT22;3829;50.798;4.358;2023-03-14T05:24:08;10.30;99.90
7576;DHT22;3829;50.798;4.358;2023-03-14T05:26:34;10.30;99.90
7576;DHT22;3829;50.798;4.358;2023-03-14T05:28:59;10.40;99.90
7576;DHT22;3829;50.798;4.358;2023-03-14T05:31:25;10.40;99.90
7576;DHT22;3829;50.798;4.358;2023-03-14T05:33:50;10.40;99.90
7576;DHT22;3829;50.798;4.358;2023-03-14T05:36:16;10.30;99.90
7576;DHT22;3829;50.798;4.358;2023-03-14T05:38:41;10.40;99.90
7576;DHT22;3829;50.798;4.358;2023-03-14T05:41:07;10.40;99.90
7576;DHT22;3829;50.798;4.358;2023-03-14T05:43:33;10.40;99.90
7576;DHT22;3829;50.798;4.358;2023-03-14T05:45:59;10.30;99.90
7576;DHT22;3829;50.798;4.358;2023-03-14T05:48:24;10.20;99.90
7576;DHT22;3829;50.798;4.358;2023-03-14T05:50:59;10.20;99.90
7576;DHT22;3829;50.798;4.358;2023-03-14T05:53:25;10.20;99.90
7576;DHT22;3829;50.798;4.358;2023-03-14T05:55:52;10.30;99.90
7576;DHT22;3829;50.798;4.358;2023-03-14T05:58:18;10.20;99.90
7576;DHT22;3829;50.798;4.358;2023-03-14T06:00:44;10.10;99.90
7576;DHT22;3829;50.798;4.358;2023-03-14T06:03:09;10.10;99.90
7576;DHT22;3829;50.798;4.358;2023-03-14T06:05:35;10.10;99.90
7576;DHT22;3829;50.798;4.358;2023-03-14T06:08:01;10.20;99.90
7576;DHT22;3829;50.798;4.358;2023-03-14T06:10:27;10.10;99.90
7576;DHT22;3829;50.798;4.358;2023-03-14T06:12:53;10.20;99.90
7576;DHT22;3829;50.798;4.358;2023-03-14T06:15:19;10.20;99.90
7576;DHT22;3829;50.798;4.358;2023-03-14T06:17:44;10.20;99.90
7576;DHT22;3829;50.798;4.358;2023-03-14T06:20:10;10.20;99.90
7576;DHT22;3829;50.798;4.358;2023-03-14T06:22:36;10.20;99.90
7576;DHT22;3829;50.798;4.358;2023-03-14T06:25:01;10.20;99.90
7576;DHT22;3829;50.798;4.358;2023-03-14T06:27:29;10.10;99.90
7576;DHT22;3829;50.798;4.358;2023-03-14T06:29:54;10.10;99.90
7576;DHT22;3829;50.798;4.358;2023-03-14T06:32:20;10.10;99.90
7576;DHT22;3829;50.798;4.358;2023-03-14T06:34:46;10.10;99.90
7576;DHT22;3829;50.798;4.358;2023-03-14T06:37:12;10.20;99.90
7576;DHT22;3829;50.798;4.358;2023-03-14T06:39:37;10.20;99.90
7576;DHT22;3829;50.798;4.358;2023-03-14T06:42:04;10.10;99.90
7576;DHT22;3829;50.798;4.358;2023-03-14T06:44:30;10.30;99.90
7576;DHT22;3829;50.798;4.358;2023-03-14T06:46:55;10.20;99.90
7576;DHT22;3829;50.798;4.358;2023-03-14T06:49:21;10.20;99.90
7576;DHT22;3829;50.798;4.358;2023-03-14T06:51:47;10.10;99.90
7576;DHT22;3829;50.798;4.358;2023-03-14T06:54:13;9.60;99.90
7576;DHT22;3829;50.798;4.358;2023-03-14T06:56:39;9.30;99.90
7576;DHT22;3829;50.798;4.358;2023-03-14T06:59:04;9.00;99.90
7576;DHT22;3829;50.798;4.358;2023-03-14T07:01:30;8.60;99.90
7576;DHT22;3829;50.798;4.358;2023-03-14T07:03:58;8.40;99.90
7576;DHT22;3829;50.798;4.358;2023-03-14T07:06:24;8.30;99.90
7576;DHT22;3829;50.798;4.358;2023-03-14T07:08:50;8.20;99.90
7576;DHT22;3829;50.798;4.358;2023-03-14T07:11:16;8.20;99.90
7576;DHT22;3829;50.798;4.358;2023-03-14T07:13:42;8.20;99.90
7576;DHT22;3829;50.798;4.358;2023-03-14T07:16:08;8.00;99.90
7576;DHT22;3829;50.798;4.358;2023-03-14T07:18:34;7.90;99.90
7576;DHT22;3829;50.798;4.358;2023-03-14T07:21:00;7.80;99.90
7576;DHT22;3829;50.798;4.358;2023-03-14T07:23:25;7.70;99.90
7576;DHT22;3829;50.798;4.358;2023-03-14T07:25:51;7.60;99.90
7576;DHT22;3829;50.798;4.358;2023-03-14T07:28:18;7.70;99.90
7576;DHT22;3829;50.798;4.358;2023-03-14T07:30:46;7.70;99.90
7576;DHT22;3829;50.798;4.358;2023-03-14T07:33:12;7.80;99.90
7576;DHT22;3829;50.798;4.358;2023-03-14T07:35:38;7.60;99.90
7576;DHT22;3829;50.798;4.358;2023-03-14T07:38:04;7.60;99.90
7576;DHT22;3829;50.798;4.358;2023-03-14T07:40:29;7.50;99.90
7576;DHT22;3829;50.798;4.358;2023-03-14T07:42:55;7.50;99.90
7576;DHT22;3829;50.798;4.358;2023-03-14T07:45:20;7.40;99.90
7576;DHT22;3829;50.798;4.358;2023-03-14T07:47:46;7.40;99.90
7576;DHT22;3829;50.798;4.358;2023-03-14T07:50:12;7.30;99.90
7576;DHT22;3829;50.798;4.358;2023-03-14T07:52:37;7.30;99.90
7576;DHT22;3829;50.798;4.358;2023-03-14T07:55:03;7.30;99.90
7576;DHT22;3829;50.798;4.358;2023-03-14T07:57:29;7.30;99.90
7576;DHT22;3829;50.798;4.358;2023-03-14T07:59:55;7.30;99.90
7576;DHT22;3829;50.798;4.358;2023-03-14T08:02:20;7.30;99.90
7576;DHT22;3829;50.798;4.358;2023-03-14T08:04:47;7.40;99.90
7576;DHT22;3829;50.798;4.358;2023-03-14T08:07:14;7.30;99.90
7576;DHT22;3829;50.798;4.358;2023-03-14T08:09:39;7.30;99.90
7576;DHT22;3829;50.798;4.358;2023-03-14T08:12:05;7.30;99.90
7576;DHT22;3829;50.798;4.358;2023-03-14T08:14:31;7.20;99.90
7576;DHT22;3829;50.798;4.358;2023-03-14T08:16:57;7.30;99.90
7576;DHT22;3829;50.798;4.358;2023-03-14T08:19:23;7.30;99.90
7576;DHT22;3829;50.798;4.358;2023-03-14T08:21:49;7.50;99.90
7576;DHT22;3829;50.798;4.358;2023-03-14T08:24:15;7.40;99.90
7576;DHT22;3829;50.798;4.358;2023-03-14T08:26:41;7.50;99.90
7576;DHT22;3829;50.798;4.358;2023-03-14T08:29:06;7.50;99.90
7576;DHT22;3829;50.798;4.358;2023-03-14T08:31:34;7.50;99.90
7576;DHT22;3829;50.798;4.358;2023-03-14T08:34:01;7.40;99.90
7576;DHT22;3829;50.798;4.358;2023-03-14T08:36:27;7.30;99.90
7576;DHT22;3829;50.798;4.358;2023-03-14T08:38:53;7.30;99.90
7576;DHT22;3829;50.798;4.358;2023-03-14T08:41:19;7.30;99.90
7576;DHT22;3829;50.798;4.358;2023-03-14T08:43:45;7.10;99.90
7576;DHT22;3829;50.798;4.358;2023-03-14T08:46:10;6.90;99.90
7576;DHT22;3829;50.798;4.358;2023-03-14T08:48:36;6.80;99.90
7576;DHT22;3829;50.798;4.358;2023-03-14T08:51:09;6.70;99.90
7576;DHT22;3829;50.798;4.358;2023-03-14T08:53:36;6.70;99.90
7576;DHT22;3829;50.798;4.358;2023-03-14T08:56:02;6.70;99.90
7576;DHT22;3829;50.798;4.358;2023-03-14T08:58:29;6.60;99.90
7576;DHT22;3829;50.798;4.358;2023-03-14T09:00:55;6.60;99.90
7576;DHT22;3829;50.798;4.358;2023-03-14T09:03:20;6.50;99.90
7576;DHT22;3829;50.798;4.358;2023-03-14T09:05:49;6.50;99.90
7576;DHT22;3829;50.798;4.358;2023-03-14T09:08:15;6.40;99.90
7576;DHT22;3829;50.798;4.358;2023-03-14T09:10:41;6.60;99.90
7576;DHT22;3829;50.798;4.358;2023-03-14T09:13:06;6.60;99.90
7576;DHT22;3829;50.798;4.358;2023-03-14T09:15:32;6.70;99.90
7576;DHT22;3829;50.798;4.358;2023-03-14T09:17:58;6.60;99.90
7576;DHT22;3829;50.798;4.358;2023-03-14T09:20:23;6.60;99.90
7576;DHT22;3829;50.798;4.358;2023-03-14T09:22:49;6.60;99.90
7576;DHT22;3829;50.798;4.358;2023-03-14T09:25:15;6.40;99.90
7576;DHT22;3829;50.798;4.358;2023-03-14T09:27:40;6.40;99.90
7576;DHT22;3829;50.798;4.358;2023-03-14T09:30:07;6.60;99.90
7576;DHT22;3829;50.798;4.358;2023-03-14T09:32:32;6.60;99.90
7576;DHT22;3829;50.798;4.358;2023-03-14T09:34:58;6.70;99.90
7576;DHT22;3829;50.798;4.358;2023-03-14T09:37:24;6.80;99.90
7576;DHT22;3829;50.798;4.358;2023-03-14T09:39:49;6.80;99.90
7576;DHT22;3829;50.798;4.358;2023-03-14T09:42:18;6.90;99.90
7576;DHT22;3829;50.798;4.358;2023-03-14T09:44:54;6.80;99.90
7576;DHT22;3829;50.798;4.358;2023-03-14T09:47:23;6.90;99.90
7576;DHT22;3829;50.798;4.358;2023-03-14T09:49:49;6.80;99.90
7576;DHT22;3829;50.798;4.358;2023-03-14T09:54:58;6.80;99.90
7576;DHT22;3829;50.798;4.358;2023-03-14T09:57:26;6.70;99.90
7576;DHT22;3829;50.798;4.358;2023-03-14T09:59:54;6.60;99.90
7576;DHT22;3829;50.798;4.358;2023-03-14T10:02:34;6.60;99.90
7576;DHT22;3829;50.798;4.358;2023-03-14T10:05:00;6.70;99.90
7576;DHT22;3829;50.798;4.358;2023-03-14T10:07:30;6.70;99.90
7576;DHT22;3829;50.798;4.358;2023-03-14T10:09:57;6.70;99.90
7576;DHT22;3829;50.798;4.358;2023-03-14T10:12:44;6.70;99.90
7576;DHT22;3829;50.798;4.358;2023-03-14T10:15:13;6.70;99.90
7576;DHT22;3829;50.798;4.358;2023-03-14T10:17:47;6.80;99.90
7576;DHT22;3829;50.798;4.358;2023-03-14T10:20:27;6.90;99.90
7576;DHT22;3829;50.798;4.358;2023-03-14T10:22:57;7.00;99.90
7576;DHT22;3829;50.798;4.358;2023-03-14T10:25:28;6.90;99.90
7576;DHT22;3829;50.798;4.358;2023-03-14T10:27:54;7.00;99.90
7576;DHT22;3829;50.798;4.358;2023-03-14T10:30:54;7.10;99.90
7576;DHT22;3829;50.798;4.358;2023-03-14T10:33:26;7.00;99.90
7576;DHT22;3829;50.798;4.358;2023-03-14T10:38:19;6.80;99.90
7576;DHT22;3829;50.798;4.358;2023-03-14T10:40:49;6.80;99.90
7576;DHT22;3829;50.798;4.358;2023-03-14T10:43:33;6.80;99.90
7576;DHT22;3829;50.798;4.358;2023-03-14T10:46:14;6.70;99.90
7576;DHT22;3829;50.798;4.358;2023-03-14T10:48:41;6.60;99.90
7576;DHT22;3829;50.798;4.358;2023-03-14T10:51:27;6.60;99.90
7576;DHT22;3829;50.798;4.358;2023-03-14T10:54:00;6.50;99.90
7576;DHT22;3829;50.798;4.358;2023-03-14T10:56:27;6.50;99.90
7576;DHT22;3829;50.798;4.358;2023-03-14T10:58:58;6.40;99.90
7576;DHT22;3829;50.798;4.358;2023-03-14T11:07:29;6.50;99.90
7576;DHT22;3829;50.798;4.358;2023-03-14T11:10:02;6.80;99.90
7576;DHT22;3829;50.798;4.358;2023-03-14T11:13:01;6.70;99.90
7576;DHT22;3829;50.798;4.358;2023-03-14T11:21:27;6.20;99.90
7576;DHT22;3829;50.798;4.358;2023-03-14T11:24:17;6.10;99.90
7576;DHT22;3829;50.798;4.358;2023-03-14T11:29:55;6.20;99.90
7576;DHT22;3829;50.798;4.358;2023-03-14T11:32:45;6.30;99.90
7576;DHT22;3829;50.798;4.358;2023-03-14T11:38:02;5.70;99.90
7576;DHT22;3829;50.798;4.358;2023-03-14T11:40:30;5.60;99.90
7576;DHT22;3829;50.798;4.358;2023-03-14T11:43:18;5.60;99.90
7576;DHT22;3829;50.798;4.358;2023-03-14T11:45:47;5.70;99.90
7576;DHT22;3829;50.798;4.358;2023-03-14T11:51:02;5.80;99.90
7576;DHT22;3829;50.798;4.358;2023-03-14T11:53:47;5.70;99.90
7576;DHT22;3829;50.798;4.358;2023-03-14T11:56:29;5.50;99.90
7576;DHT22;3829;50.798;4.358;2023-03-14T11:59:07;5.40;99.90
7576;DHT22;3829;50.798;4.358;2023-03-14T12:01:44;5.30;99.90
7576;DHT22;3829;50.798;4.358;2023-03-14T12:04:30;5.20;99.90
7576;DHT22;3829;50.798;4.358;2023-03-14T12:07:02;5.30;99.90
7576;DHT22;3829;50.798;4.358;2023-03-14T12:09:29;5.20;99.90
7576;DHT22;3829;50.798;4.358;2023-03-14T12:11:58;5.10;99.90
7576;DHT22;3829;50.798;4.358;2023-03-14T12:17:39;5.10;99.90
7576;DHT22;3829;50.798;4.358;2023-03-14T12:19:39;5.20;99.90
7576;DHT22;3829;50.798;4.358;2023-03-14T12:25:19;5.50;99.90
7576;DHT22;3829;50.798;4.358;2023-03-14T12:30:34;5.60;99.90
7576;DHT22;3829;50.798;4.358;2023-03-14T12:38:38;5.70;99.90
7576;DHT22;3829;50.798;4.358;2023-03-14T12:43:32;5.50;99.90
7576;DHT22;3829;50.798;4.358;2023-03-14T12:46:09;5.40;99.90
7576;DHT22;3829;50.798;4.358;2023-03-14T12:48:40;5.40;99.90
7576;DHT22;3829;50.798;4.358;2023-03-14T12:51:14;5.40;99.90
7576;DHT22;3829;50.798;4.358;2023-03-14T12:53:45;5.50;99.90
7576;DHT22;3829;50.798;4.358;2023-03-14T13:01:28;5.50;99.90
7576;DHT22;3829;50.798;4.358;2023-03-14T13:03:57;5.50;99.90
7576;DHT22;3829;50.798;4.358;2023-03-14T13:06:54;5.40;99.90
7576;DHT22;3829;50.798;4.358;2023-03-14T13:12:16;5.40;99.90
7576;DHT22;3829;50.798;4.358;2023-03-14T13:14:48;5.80;99.90
7576;DHT22;3829;50.798;4.358;2023-03-14T13:17:16;5.90;99.90
7576;DHT22;3829;50.798;4.358;2023-03-14T13:19:52;6.10;99.90
7576;DHT22;3829;50.798;4.358;2023-03-14T13:22:27;6.10;99.90
7576;DHT22;3829;50.798;4.358;2023-03-14T13:25:05;6.20;99.90
7576;DHT22;3829;50.798;4.358;2023-03-14T13:27:33;6.20;99.90
7576;DHT22;3829;50.798;4.358;2023-03-14T13:29:59;6.20;99.90
7576;DHT22;3829;50.798;4.358;2023-03-14T13:32:29;6.20;99.90
7576;DHT22;3829;50.798;4.358;2023-03-14T13:34:56;6.10;99.90
7576;DHT22;3829;50.798;4.358;2023-03-14T13:37:24;6.20;99.90
7576;DHT22;3829;50.798;4.358;2023-03-14T13:39:55;6.10;99.90
7576;DHT22;3829;50.798;4.358;2023-03-14T13:42:24;6.00;99.90
7576;DHT22;3829;50.798;4.358;2023-03-14T13:44:53;6.00;99.90
7576;DHT22;3829;50.798;4.358;2023-03-14T13:47:20;6.00;99.90
7576;DHT22;3829;50.798;4.358;2023-03-14T13:49:48;6.10;99.90
7576;DHT22;3829;50.798;4.358;2023-03-14T13:52:31;6.40;99.90
7576;DHT22;3829;50.798;4.358;2023-03-14T13:54:59;6.40;99.90
7576;DHT22;3829;50.798;4.358;2023-03-14T13:57:26;6.50;99.90
7576;DHT22;3829;50.798;4.358;2023-03-14T14:02:26;6.60;99.90
7576;DHT22;3829;50.798;4.358;2023-03-14T14:04:53;6.60;99.90
7576;DHT22;3829;50.798;4.358;2023-03-14T14:07:19;6.70;99.90
7576;DHT22;3829;50.798;4.358;2023-03-14T14:09:48;6.60;99.90
7576;DHT22;3829;50.798;4.358;2023-03-14T14:12:22;6.70;99.90
7576;DHT22;3829;50.798;4.358;2023-03-14T14:15:26;6.70;99.90
7576;DHT22;3829;50.798;4.358;2023-03-14T14:17:56;6.80;99.90
7576;DHT22;3829;50.798;4.358;2023-03-14T14:23:01;7.60;99.90
7576;DHT22;3829;50.798;4.358;2023-03-14T14:25:29;7.80;99.90
7576;DHT22;3829;50.798;4.358;2023-03-14T14:27:55;8.00;99.90
7576;DHT22;3829;50.798;4.358;2023-03-14T14:32:48;7.80;99.90
7576;DHT22;3829;50.798;4.358;2023-03-14T14:37:52;7.20;99.90
7576;DHT22;3829;50.798;4.358;2023-03-14T14:40:29;6.80;99.90
7576;DHT22;3829;50.798;4.358;2023-03-14T14:43:02;6.70;99.90
7576;DHT22;3829;50.798;4.358;2023-03-14T14:45:28;6.40;99.90
7576;DHT22;3829;50.798;4.358;2023-03-14T14:48:05;6.60;99.90
7576;DHT22;3829;50.798;4.358;2023-03-14T14:50:34;6.50;99.90
7576;DHT22;3829;50.798;4.358;2023-03-14T14:53:28;6.10;99.90
7576;DHT22;3829;50.798;4.358;2023-03-14T14:55:59;5.90;99.90
7576;DHT22;3829;50.798;4.358;2023-03-14T14:58:28;5.70;99.90
7576;DHT22;3829;50.798;4.358;2023-03-14T15:01:07;5.30;99.90
7576;DHT22;3829;50.798;4.358;2023-03-14T15:03:35;5.30;99.90
7576;DHT22;3829;50.798;4.358;2023-03-14T15:06:02;5.00;99.90
7576;DHT22;3829;50.798;4.358;2023-03-14T15:08:28;4.80;99.90
7576;DHT22;3829;50.798;4.358;2023-03-14T15:10:55;4.80;99.90
7576;DHT22;3829;50.798;4.358;2023-03-14T15:13:21;4.50;99.90
7576;DHT22;3829;50.798;4.358;2023-03-14T15:15:47;4.50;99.90
7576;DHT22;3829;50.798;4.358;2023-03-14T15:18:17;4.60;99.90
7576;DHT22;3829;50.798;4.358;2023-03-14T15:20:44;4.70;99.90
7576;DHT22;3829;50.798;4.358;2023-03-14T15:23:12;5.00;99.90
7576;DHT22;3829;50.798;4.358;2023-03-14T15:25:37;5.40;99.90
7576;DHT22;3829;50.798;4.358;2023-03-14T15:28:17;5.50;99.90
7576;DHT22;3829;50.798;4.358;2023-03-14T15:30:46;5.80;99.90
7576;DHT22;3829;50.798;4.358;2023-03-14T15:33:12;6.10;99.90
7576;DHT22;3829;50.798;4.358;2023-03-14T15:35:41;6.40;99.90
7576;DHT22;3829;50.798;4.358;2023-03-14T15:38:12;6.60;99.90
7576;DHT22;3829;50.798;4.358;2023-03-14T15:40:38;6.60;99.90
7576;DHT22;3829;50.798;4.358;2023-03-14T15:43:04;6.70;99.90
7576;DHT22;3829;50.798;4.358;2023-03-14T15:45:30;6.80;99.90
7576;DHT22;3829;50.798;4.358;2023-03-14T15:47:55;6.80;99.90
7576;DHT22;3829;50.798;4.358;2023-03-14T15:50:21;6.90;99.90
7576;DHT22;3829;50.798;4.358;2023-03-14T15:52:47;7.00;99.90
7576;DHT22;3829;50.798;4.358;2023-03-14T15:55:13;7.00;99.90
7576;DHT22;3829;50.798;4.358;2023-03-14T15:57:40;7.00;99.90
7576;DHT22;3829;50.798;4.358;2023-03-14T16:00:09;7.10;99.90
7576;DHT22;3829;50.798;4.358;2023-03-14T16:02:36;7.00;99.90
7576;DHT22;3829;50.798;4.358;2023-03-14T16:05:07;6.90;99.90
7576;DHT22;3829;50.798;4.358;2023-03-14T16:07:32;6.90;99.90
7576;DHT22;3829;50.798;4.358;2023-03-14T16:09:58;6.80;99.90
7576;DHT22;3829;50.798;4.358;2023-03-14T16:12:24;6.70;99.90
7576;DHT22;3829;50.798;4.358;2023-03-14T16:14:49;6.70;99.90
7576;DHT22;3829;50.798;4.358;2023-03-14T16:17:15;6.70;99.90
7576;DHT22;3829;50.798;4.358;2023-03-14T16:19:40;6.60;99.90
7576;DHT22;3829;50.798;4.358;2023-03-14T16:22:06;6.70;99.90
7576;DHT22;3829;50.798;4.358;2023-03-14T16:24:32;6.70;99.90
7576;DHT22;3829;50.798;4.358;2023-03-14T16:26:57;6.70;99.90
7576;DHT22;3829;50.798;4.358;2023-03-14T16:29:23;6.60;99.90
7576;DHT22;3829;50.798;4.358;2023-03-14T16:31:48;6.50;99.90
7576;DHT22;3829;50.798;4.358;2023-03-14T16:34:14;6.50;99.90
7576;DHT22;3829;50.798;4.358;2023-03-14T16:36:39;6.50;99.90
7576;DHT22;3829;50.798;4.358;2023-03-14T16:39:05;6.50;99.90
7576;DHT22;3829;50.798;4.358;2023-03-14T16:41:31;6.50;99.90
7576;DHT22;3829;50.798;4.358;2023-03-14T16:43:57;6.70;99.90
7576;DHT22;3829;50.798;4.358;2023-03-14T16:46:23;6.70;99.90
7576;DHT22;3829;50.798;4.358;2023-03-14T16:48:51;6.60;99.90
7576;DHT22;3829;50.798;4.358;2023-03-14T16:51:17;6.70;99.90
7576;DHT22;3829;50.798;4.358;2023-03-14T16:53:43;6.60;99.90
7576;DHT22;3829;50.798;4.358;2023-03-14T16:56:09;6.60;99.90
7576;DHT22;3829;50.798;4.358;2023-03-14T16:58:36;6.60;99.90
7576;DHT22;3829;50.798;4.358;2023-03-14T17:01:09;6.60;99.90
7576;DHT22;3829;50.798;4.358;2023-03-14T17:03:40;6.60;99.90
7576;DHT22;3829;50.798;4.358;2023-03-14T17:06:07;6.60;99.90
7576;DHT22;3829;50.798;4.358;2023-03-14T17:08:33;6.50;99.90
7576;DHT22;3829;50.798;4.358;2023-03-14T17:10:58;6.40;99.90
7576;DHT22;3829;50.798;4.358;2023-03-14T17:13:24;6.30;99.90
7576;DHT22;3829;50.798;4.358;2023-03-14T17:15:58;6.30;99.90
7576;DHT22;3829;50.798;4.358;2023-03-14T17:18:24;6.20;99.90
7576;DHT22;3829;50.798;4.358;2023-03-14T17:20:54;6.20;99.90
7576;DHT22;3829;50.798;4.358;2023-03-14T17:23:21;6.20;99.90